Terminal Aerodrome Forecast
Issued by NWS

Home | Current Version | Previous Version | Text Only | Print | Product List | Glossary On
Versions: 1 2 3 4 5 6 7 8 9 10 11 12
000
FTPQ31 PGUM 312332
TAFGUM
TAF

TAF
PTRO 312332Z 0100/0124 35004KT P6SM VCSH FEW016 SCT120
      TEMPO 0103/0106 VRB04KT 5SM SHRA SCT014 BKN025=

USA.gov is the U.S. government's official web portal to all federal, state and local government web resources and services.